createdAt,value
2023-03-17T00:00:11.846Z,58.07
2023-03-17T00:02:51.376Z,58.27
2023-03-17T00:05:49.615Z,58.64
2023-03-17T00:08:28.639Z,59.04
2023-03-17T00:11:07.935Z,58.46
2023-03-17T00:13:37.550Z,58.81
2023-03-17T00:16:22.404Z,58.41
2023-03-17T00:18:54.101Z,58.85
2023-03-17T00:21:42.160Z,58.80
2023-03-17T00:24:17.513Z,58.90
2023-03-17T00:26:59.599Z,58.36
2023-03-17T00:29:40.801Z,57.85
2023-03-17T00:32:29.979Z,57.74
2023-03-17T00:35:01.329Z,58.33
2023-03-17T00:37:53.720Z,57.70
2023-03-17T00:46:38.705Z,58.44
2023-03-17T00:49:41.058Z,58.54
2023-03-17T00:52:16.761Z,58.59
2023-03-17T00:54:55.168Z,58.85
2023-03-17T00:57:34.358Z,58.96
2023-03-17T01:00:12.879Z,59.15
2023-03-17T01:02:46.986Z,59.53
2023-03-17T01:05:25.302Z,59.74
2023-03-17T01:08:01.438Z,59.50
2023-03-17T01:10:44.354Z,59.36
2023-03-17T01:13:21.173Z,59.05
2023-03-17T01:16:06.787Z,59.35
2023-03-17T01:18:35.228Z,59.48
2023-03-17T01:21:13.877Z,59.63
2023-03-17T01:23:48.737Z,59.37
2023-03-17T01:26:25.708Z,59.42
2023-03-17T01:29:22.467Z,59.21
2023-03-17T01:32:11.977Z,59.64
2023-03-17T01:34:42.508Z,59.25
2023-03-17T01:37:21.094Z,59.47
2023-03-17T01:40:01.610Z,58.98
2023-03-17T01:42:45.841Z,59.21
2023-03-17T01:46:08.356Z,59.17
2023-03-17T01:48:54.409Z,59.63
2023-03-17T01:51:51.243Z,59.17
2023-03-17T01:57:33.451Z,59.70
2023-03-17T02:00:21.911Z,59.31
2023-03-17T02:03:03.201Z,59.57
2023-03-17T02:05:52.967Z,59.49
2023-03-17T02:08:30.863Z,59.95
2023-03-17T02:11:14.316Z,59.86
2023-03-17T02:13:45.009Z,59.66
2023-03-17T02:16:53.084Z,59.76
2023-03-17T02:19:22.434Z,60.03
2023-03-17T02:22:05.436Z,60.05
2023-03-17T02:24:45.118Z,59.84
2023-03-17T02:27:29.805Z,60.08
2023-03-17T02:30:29.286Z,59.73
2023-03-17T02:33:17.112Z,59.99
2023-03-17T02:35:55.946Z,60.52
2023-03-17T02:38:32.195Z,60.07
2023-03-17T02:41:23.126Z,60.43
2023-03-17T02:44:07.360Z,60.33
2023-03-17T02:46:47.874Z,60.66
2023-03-17T02:49:30.552Z,60.67
2023-03-17T02:52:02.049Z,60.70
2023-03-17T02:54:41.274Z,61.07
2023-03-17T02:57:15.390Z,60.77
2023-03-17T02:59:51.189Z,61.44
2023-03-17T03:02:20.455Z,61.07
2023-03-17T03:04:59.011Z,61.35
2023-03-17T03:07:40.032Z,61.27
2023-03-17T03:10:20.134Z,61.35
2023-03-17T03:12:50.094Z,61.62
2023-03-17T03:15:28.761Z,61.47
2023-03-17T03:18:03.458Z,61.36
2023-03-17T03:20:48.769Z,61.58
2023-03-17T03:23:32.716Z,61.59
2023-03-17T03:26:13.189Z,61.62
2023-03-17T03:28:51.981Z,61.24
2023-03-17T03:31:44.504Z,61.55
2023-03-17T03:34:34.055Z,61.64
2023-03-17T03:37:11.968Z,61.36
2023-03-17T03:39:42.836Z,61.70
2023-03-17T03:42:20.944Z,61.62
2023-03-17T03:44:57.221Z,61.89
2023-03-17T03:47:44.080Z,61.75
2023-03-17T03:50:17.408Z,61.79
2023-03-17T03:52:53.047Z,61.76
2023-03-17T03:55:37.859Z,62.02
2023-03-17T03:58:21.063Z,61.82
2023-03-17T04:00:58.543Z,61.45
2023-03-17T04:03:32.496Z,61.60
2023-03-17T04:08:35.242Z,61.30
2023-03-17T04:11:15.692Z,60.98
2023-03-17T04:14:05.379Z,60.90
2023-03-17T04:19:26.463Z,60.83
2023-03-17T04:25:17.134Z,60.71
2023-03-17T04:28:00.371Z,60.92
2023-03-17T04:30:47.068Z,60.80
2023-03-17T04:33:26.106Z,60.65
2023-03-17T04:36:11.596Z,61.06
2023-03-17T04:38:53.220Z,61.08
2023-03-17T04:44:12.249Z,60.53
2023-03-17T04:46:52.878Z,60.52
2023-03-17T04:49:34.875Z,60.64
2023-03-17T04:52:31.477Z,60.55
2023-03-17T04:55:16.456Z,60.78
2023-03-17T04:57:54.251Z,60.41
2023-03-17T05:00:24.826Z,60.60
2023-03-17T05:03:02.016Z,60.77
2023-03-17T05:05:41.763Z,60.43
2023-03-17T05:08:17.389Z,60.57
2023-03-17T05:10:56.352Z,60.37
2023-03-17T05:13:32.455Z,60.46
2023-03-17T05:16:11.214Z,60.52
2023-03-17T05:18:43.200Z,61.00
2023-03-17T05:21:19.781Z,61.29
2023-03-17T05:23:56.597Z,61.63
2023-03-17T05:26:36.170Z,61.74
2023-03-17T05:29:18.493Z,61.58
2023-03-17T05:31:58.604Z,61.50
2023-03-17T05:34:33.925Z,61.30
2023-03-17T05:37:12.419Z,61.59
2023-03-17T05:39:57.786Z,61.64
2023-03-17T05:42:52.393Z,61.49
2023-03-17T05:45:38.975Z,61.96
2023-03-17T05:48:16.563Z,61.99
2023-03-17T05:50:45.314Z,62.52
2023-03-17T05:53:20.046Z,62.27
2023-03-17T05:56:00.385Z,61.98
2023-03-17T05:58:36.726Z,62.25
2023-03-17T06:01:08.614Z,62.19
2023-03-17T06:03:51.488Z,61.82
2023-03-17T06:06:26.231Z,61.99
2023-03-17T06:09:05.861Z,62.14
2023-03-17T06:11:38.620Z,62.29
2023-03-17T06:14:17.061Z,62.02
2023-03-17T06:16:44.862Z,62.16
2023-03-17T06:19:19.030Z,62.13
2023-03-17T06:21:46.012Z,61.68
2023-03-17T06:24:20.302Z,62.05
2023-03-17T06:26:54.129Z,61.54
2023-03-17T06:29:35.092Z,61.40
2023-03-17T06:32:17.284Z,61.51
2023-03-17T06:34:53.264Z,61.34
2023-03-17T06:37:21.418Z,61.14
2023-03-17T06:39:48.776Z,60.72
2023-03-17T06:42:22.117Z,60.71
2023-03-17T06:44:52.472Z,60.92
2023-03-17T06:47:26.200Z,60.47
2023-03-17T06:50:13.418Z,59.82
2023-03-17T06:52:54.081Z,59.88
2023-03-17T06:55:21.735Z,59.44
2023-03-17T06:57:55.265Z,59.88
2023-03-17T07:00:23.259Z,58.99
2023-03-17T07:02:57.110Z,58.81
2023-03-17T07:05:24.284Z,59.37
2023-03-17T07:07:51.240Z,59.03
2023-03-17T07:10:25.227Z,58.37
2023-03-17T07:12:59.118Z,57.80
2023-03-17T07:15:26.227Z,57.45
2023-03-17T07:17:59.056Z,56.96
2023-03-17T07:20:33.064Z,56.34
2023-03-17T07:23:00.982Z,55.79
2023-03-17T07:25:35.106Z,56.21
2023-03-17T07:28:03.381Z,55.85
2023-03-17T07:30:44.397Z,56.27
2023-03-17T07:33:11.605Z,55.49
2023-03-17T07:35:45.225Z,54.90
2023-03-17T07:38:12.214Z,54.73
2023-03-17T07:40:46.374Z,54.38
2023-03-17T07:43:24.663Z,54.24
2023-03-17T07:46:03.550Z,54.53
2023-03-17T07:48:33.765Z,54.28
2023-03-17T07:51:07.141Z,53.49
2023-03-17T07:53:41.173Z,53.82
2023-03-17T07:56:16.380Z,52.99
2023-03-17T07:58:52.715Z,53.21
2023-03-17T08:01:25.534Z,52.96
2023-03-17T08:04:00.438Z,53.20
2023-03-17T08:06:47.869Z,52.70
2023-03-17T08:13:04.401Z,52.84
2023-03-17T08:15:51.453Z,51.93
2023-03-17T08:18:28.233Z,51.92
2023-03-17T08:21:03.174Z,51.73
2023-03-17T08:24:04.699Z,51.77
2023-03-17T08:26:35.380Z,51.68
2023-03-17T08:32:14.413Z,51.08
2023-03-17T08:35:04.615Z,50.92
2023-03-17T08:37:40.305Z,51.47
2023-03-17T08:40:47.296Z,51.32
2023-03-17T08:43:23.908Z,51.55
2023-03-17T08:45:59.494Z,50.53
2023-03-17T08:54:37.675Z,50.52
2023-03-17T08:57:20.024Z,50.80
2023-03-17T09:00:30.928Z,50.24
2023-03-17T09:06:13.077Z,49.84
2023-03-17T09:09:07.065Z,48.99
2023-03-17T09:11:45.689Z,49.10
2023-03-17T09:14:57.686Z,49.18
2023-03-17T09:17:49.369Z,48.83
2023-03-17T09:20:39.175Z,48.40
2023-03-17T09:26:11.779Z,48.45
2023-03-17T09:29:12.025Z,48.22
2023-03-17T09:31:47.656Z,47.54
2023-03-17T09:34:27.218Z,45.96
2023-03-17T09:37:15.526Z,46.34
2023-03-17T09:40:11.252Z,46.02
2023-03-17T09:43:25.821Z,47.04
2023-03-17T09:47:00.780Z,46.44
2023-03-17T09:50:19.920Z,45.84
2023-03-17T09:53:00.072Z,45.34
2023-03-17T09:55:40.022Z,44.37
2023-03-17T09:58:34.407Z,43.97
2023-03-17T10:01:42.652Z,43.79
2023-03-17T10:10:39.283Z,43.45
2023-03-17T10:27:11.982Z,41.59
2023-03-17T10:30:03.096Z,41.52
2023-03-17T10:32:45.699Z,40.23
2023-03-17T10:35:32.918Z,40.68
2023-03-17T10:38:24.446Z,39.90
2023-03-17T10:41:28.572Z,40.80
2023-03-17T10:44:13.627Z,40.60
2023-03-17T10:47:01.655Z,41.05
2023-03-17T10:49:51.917Z,41.01
2023-03-17T10:52:38.645Z,40.93
2023-03-17T10:55:31.220Z,41.28
2023-03-17T10:58:18.719Z,40.69
2023-03-17T11:01:27.469Z,40.85
2023-03-17T11:04:12.430Z,41.06
2023-03-17T11:06:53.113Z,42.13
2023-03-17T11:09:39.507Z,42.56
2023-03-17T11:12:44.503Z,41.60
2023-03-17T11:18:29.005Z,42.54
2023-03-17T11:21:18.607Z,42.34
2023-03-17T11:24:21.453Z,43.43
2023-03-17T11:27:47.121Z,42.81
2023-03-17T11:30:47.561Z,42.62
2023-03-17T11:34:02.986Z,42.33
2023-03-17T11:36:58.695Z,41.02
2023-03-17T11:40:12.280Z,41.92
2023-03-17T11:42:59.789Z,41.82
2023-03-17T11:46:24.375Z,42.37
2023-03-17T11:49:36.337Z,43.18
2023-03-17T11:52:30.283Z,42.48
2023-03-17T11:55:48.793Z,42.60
2023-03-17T11:58:47.191Z,42.27
2023-03-17T12:01:36.238Z,43.03
2023-03-17T12:04:43.509Z,42.05
2023-03-17T12:07:59.608Z,41.62
2023-03-17T12:10:52.791Z,42.21
2023-03-17T12:14:17.262Z,41.16
2023-03-17T12:17:14.252Z,40.88
2023-03-17T12:20:30.982Z,41.46
2023-03-17T12:23:37.429Z,40.06
2023-03-17T12:26:35.577Z,40.26
2023-03-17T12:29:58.738Z,40.05
2023-03-17T12:33:36.753Z,40.35
2023-03-17T12:36:14.870Z,39.21
2023-03-17T12:38:53.216Z,38.74
2023-03-17T12:41:45.611Z,40.11
2023-03-17T12:44:25.720Z,40.49
2023-03-17T12:47:05.818Z,41.13
2023-03-17T12:50:39.988Z,40.35
2023-03-17T12:53:28.791Z,39.30
2023-03-17T12:56:31.924Z,39.71
2023-03-17T12:59:06.192Z,38.80
2023-03-17T13:01:46.655Z,38.79
2023-03-17T13:04:22.210Z,37.49
2023-03-17T13:07:30.732Z,37.73
2023-03-17T13:09:58.007Z,36.60
2023-03-17T13:13:12.385Z,37.38
2023-03-17T13:15:40.147Z,37.74
2023-03-17T13:18:22.990Z,37.53
2023-03-17T13:21:23.183Z,38.27
2023-03-17T13:24:30.508Z,37.64
2023-03-17T13:27:06.290Z,35.90
2023-03-17T13:29:39.379Z,37.29
2023-03-17T13:32:31.576Z,37.66
2023-03-17T13:35:18.993Z,37.05
2023-03-17T13:38:30.493Z,36.72
2023-03-17T13:41:09.158Z,36.65
2023-03-17T13:44:10.335Z,38.04
2023-03-17T13:46:50.297Z,37.41
2023-03-17T13:49:20.215Z,36.97
2023-03-17T13:52:19.463Z,37.94
2023-03-17T13:54:59.085Z,38.66
2023-03-17T13:57:33.526Z,38.88
2023-03-17T14:00:03.091Z,39.43
2023-03-17T14:02:49.508Z,39.59
2023-03-17T14:05:38.389Z,38.71
2023-03-17T14:08:12.035Z,39.35
2023-03-17T14:10:45.485Z,39.21
2023-03-17T14:13:25.936Z,39.48
2023-03-17T14:16:33.688Z,39.54
2023-03-17T14:19:17.961Z,39.05
2023-03-17T14:21:51.755Z,39.83
2023-03-17T14:24:24.818Z,39.52
2023-03-17T14:27:15.676Z,40.36
2023-03-17T14:29:43.774Z,40.28
2023-03-17T14:32:26.552Z,40.50
2023-03-17T14:34:59.171Z,41.04
2023-03-17T14:37:35.582Z,40.73
2023-03-17T14:40:02.781Z,41.26
2023-03-17T14:42:38.520Z,41.75
2023-03-17T14:45:09.573Z,41.33
2023-03-17T14:47:50.836Z,42.52
2023-03-17T14:50:35.816Z,42.06
2023-03-17T14:53:16.526Z,42.17
2023-03-17T14:55:44.767Z,42.55
2023-03-17T14:58:38.810Z,42.86
2023-03-17T15:04:07.139Z,41.89
2023-03-17T15:06:55.385Z,42.30
2023-03-17T15:09:41.722Z,42.47
2023-03-17T15:12:18.211Z,42.75
2023-03-17T15:14:53.667Z,42.74
2023-03-17T15:17:31.240Z,42.52
2023-03-17T15:20:13.099Z,42.95
2023-03-17T15:22:45.270Z,44.03
2023-03-17T15:25:45.974Z,43.52
2023-03-17T15:28:33.594Z,44.41
2023-03-17T15:31:20.870Z,44.62
2023-03-17T15:33:54.744Z,44.78
2023-03-17T15:36:32.162Z,45.09
2023-03-17T15:39:08.714Z,44.98
2023-03-17T15:41:45.883Z,45.40
2023-03-17T15:44:13.902Z,45.74
2023-03-17T15:46:48.690Z,45.40
2023-03-17T15:49:23.158Z,45.58
2023-03-17T15:51:58.958Z,46.06
2023-03-17T15:54:33.888Z,46.43
2023-03-17T15:57:02.036Z,45.82
2023-03-17T15:59:36.076Z,46.61
2023-03-17T16:02:39.273Z,45.91
2023-03-17T16:05:30.100Z,45.49
2023-03-17T16:08:01.027Z,45.80
2023-03-17T16:10:46.103Z,45.65
2023-03-17T16:13:14.209Z,45.22
2023-03-17T16:15:56.713Z,46.11
2023-03-17T16:18:47.959Z,46.20
2023-03-17T16:21:25.699Z,46.31
2023-03-17T16:30:31.756Z,46.99
2023-03-17T16:34:21.132Z,46.61
2023-03-17T16:40:06.053Z,46.94
2023-03-17T16:42:42.351Z,47.02
2023-03-17T16:45:18.961Z,47.16
2023-03-17T16:48:13.739Z,47.26
2023-03-17T16:50:52.155Z,48.26
2023-03-17T16:53:40.608Z,47.30
2023-03-17T16:56:35.078Z,47.77
2023-03-17T16:59:21.254Z,47.99
2023-03-17T17:02:24.536Z,47.79
2023-03-17T17:05:23.787Z,48.66
2023-03-17T17:08:02.273Z,48.38
2023-03-17T17:10:36.327Z,48.31
2023-03-17T17:13:16.646Z,48.76
2023-03-17T17:15:53.149Z,49.45
2023-03-17T17:18:37.731Z,49.42
2023-03-17T17:21:16.649Z,48.96
2023-03-17T17:23:47.359Z,48.90
2023-03-17T17:26:40.162Z,49.68
2023-03-17T17:29:54.258Z,49.47
2023-03-17T17:32:31.793Z,50.28
2023-03-17T17:35:09.026Z,50.67
2023-03-17T17:38:01.906Z,51.37
2023-03-17T17:40:47.120Z,51.69
2023-03-17T17:43:38.582Z,52.23
2023-03-17T17:46:30.525Z,52.54
2023-03-17T17:49:14.710Z,53.56
2023-03-17T17:51:50.993Z,54.20
2023-03-17T17:54:33.827Z,54.96
2023-03-17T17:57:48.021Z,55.40
2023-03-17T18:00:24.462Z,55.40
2023-03-17T18:03:13.229Z,55.69
2023-03-17T18:05:50.705Z,56.14
2023-03-17T18:08:27.674Z,56.83
2023-03-17T18:11:02.016Z,57.23
2023-03-17T18:13:45.131Z,57.64
2023-03-17T18:16:22.154Z,56.96
2023-03-17T18:19:06.061Z,57.81
2023-03-17T18:22:00.191Z,58.66
2023-03-17T18:24:35.164Z,58.80
2023-03-17T18:27:11.473Z,58.48
2023-03-17T18:30:14.404Z,57.51
2023-03-17T18:33:06.589Z,58.96
2023-03-17T18:36:08.159Z,60.22
2023-03-17T18:38:42.229Z,60.02
2023-03-17T18:41:24.924Z,60.27
2023-03-17T18:44:07.337Z,60.14
2023-03-17T18:46:44.396Z,61.09
2023-03-17T18:49:22.939Z,61.37
2023-03-17T18:52:08.983Z,60.88
2023-03-17T18:54:43.189Z,61.29
2023-03-17T18:57:30.162Z,61.43
2023-03-17T19:02:52.370Z,60.92
2023-03-17T19:05:51.617Z,61.33
2023-03-17T19:08:33.026Z,61.34
2023-03-17T19:11:05.433Z,61.02
2023-03-17T19:13:44.241Z,61.67
2023-03-17T19:16:18.538Z,59.90
2023-03-17T19:18:59.013Z,58.92
2023-03-17T19:21:40.240Z,58.11
2023-03-17T19:24:25.577Z,56.49
2023-03-17T19:26:56.634Z,55.95
2023-03-17T19:29:52.536Z,55.32
2023-03-17T19:32:31.260Z,54.33
2023-03-17T19:35:10.298Z,53.84
2023-03-17T19:37:44.035Z,53.71
2023-03-17T19:40:24.837Z,53.46
2023-03-17T19:43:09.300Z,53.08
2023-03-17T19:48:43.345Z,52.83
2023-03-17T19:54:25.086Z,52.51
2023-03-17T19:57:10.374Z,52.60
2023-03-17T19:59:43.215Z,52.41
2023-03-17T20:02:44.377Z,52.50
2023-03-17T20:05:32.928Z,52.51
2023-03-17T20:08:12.633Z,52.22
2023-03-17T20:11:07.118Z,52.59
2023-03-17T20:13:45.275Z,52.32
2023-03-17T20:16:30.101Z,52.54
2023-03-17T20:19:09.548Z,52.71
2023-03-17T20:21:58.941Z,52.86
2023-03-17T20:24:46.665Z,53.06
2023-03-17T20:27:19.306Z,52.87
2023-03-17T20:30:01.805Z,52.94
2023-03-17T20:32:50.464Z,53.59
2023-03-17T20:35:44.225Z,53.33
2023-03-17T20:38:24.918Z,53.38
2023-03-17T20:41:25.080Z,53.49
2023-03-17T20:44:05.170Z,53.70
2023-03-17T20:46:38.051Z,53.56
2023-03-17T20:49:19.477Z,53.59
2023-03-17T20:51:54.204Z,53.48
2023-03-17T20:54:30.345Z,53.68
2023-03-17T20:57:05.054Z,54.05
2023-03-17T20:59:47.894Z,53.83
2023-03-17T21:02:39.342Z,54.02
2023-03-17T21:05:32.805Z,53.95
2023-03-17T21:08:06.118Z,53.97
2023-03-17T21:11:04.271Z,54.10
2023-03-17T21:13:37.143Z,54.28
2023-03-17T21:16:29.234Z,54.27
2023-03-17T21:19:00.650Z,54.30
2023-03-17T21:21:35.066Z,54.20
2023-03-17T21:27:03.944Z,54.04
2023-03-17T21:29:43.092Z,54.05
2023-03-17T21:32:35.398Z,54.01
2023-03-17T21:35:24.093Z,54.14
2023-03-17T21:38:00.899Z,54.13
2023-03-17T21:40:54.901Z,53.94
2023-03-17T21:43:36.238Z,53.99
2023-03-17T21:46:07.175Z,54.09
2023-03-17T21:49:08.175Z,54.27
2023-03-17T21:51:42.469Z,53.99
2023-03-17T21:54:23.817Z,54.17
2023-03-17T21:56:56.442Z,54.30
2023-03-17T21:59:49.510Z,54.73
2023-03-17T22:02:23.594Z,54.85
2023-03-17T22:05:08.898Z,54.96
2023-03-17T22:07:41.166Z,54.90
2023-03-17T22:10:19.493Z,55.13
2023-03-17T22:13:08.248Z,55.09
2023-03-17T22:18:34.474Z,55.31
2023-03-17T22:21:08.904Z,55.28
2023-03-17T22:23:50.007Z,55.30
2023-03-17T22:26:33.095Z,55.50
2023-03-17T22:29:22.159Z,55.45
2023-03-17T22:32:10.235Z,55.45
2023-03-17T22:34:56.008Z,55.43
2023-03-17T22:37:44.434Z,55.61
2023-03-17T22:40:49.370Z,55.43
2023-03-17T22:43:31.066Z,56.16
2023-03-17T22:49:24.831Z,56.29
2023-03-17T22:52:03.481Z,55.99
2023-03-17T22:54:47.922Z,56.28
2023-03-17T23:00:35.513Z,56.35
2023-03-17T23:06:20.886Z,56.48
2023-03-17T23:08:59.812Z,57.32
2023-03-17T23:11:45.024Z,57.00
2023-03-17T23:14:21.376Z,57.09
2023-03-17T23:16:58.716Z,57.12
2023-03-17T23:19:44.956Z,57.31
2023-03-17T23:22:16.803Z,57.50
2023-03-17T23:25:02.765Z,57.86
2023-03-17T23:27:46.322Z,58.00
2023-03-17T23:30:36.679Z,57.85
2023-03-17T23:33:30.629Z,57.84
2023-03-17T23:36:26.042Z,58.00
2023-03-17T23:38:57.468Z,58.17
2023-03-17T23:41:37.324Z,58.40
2023-03-17T23:44:09.258Z,58.68
2023-03-17T23:46:48.628Z,58.59
2023-03-17T23:49:31.646Z,58.61
2023-03-17T23:52:19.363Z,58.64
2023-03-17T23:55:01.749Z,58.89
2023-03-17T23:58:06.688Z,59.09
